Time;durP1;ratioP1;P1;durP2;ratioP2;P2;SDS_P1;SDS_P2;PMS_P1;PMS_P2;Temp;Humidity;BMP_temperature;BMP_pressure;BME280_temperature;BME280_humidity;BME280_pressure;Samples;Min_cycle;Max_cycle;Signal;HPM_P1;HPM_P2
2023/11/12 00:01:06;;;;;;;;;;;;;;;7.55;100.00;98768.53;6188571;23;19912;-93
2023/11/12 00:03:31;;;;;;;;;;;;;;;7.56;100.00;98772.88;6216938;23;19918;-84
2023/11/12 00:05:56;;;;;;;;;;;;;;;7.60;100.00;98769.19;6217794;23;19940;-89
2023/11/12 00:08:22;;;;;;;;;;;;;;;7.61;100.00;98773.50;6215385;23;19912;-89
2023/11/12 00:10:47;;;;;;;;;;;;;;;7.60;100.00;98761.25;6189872;23;19916;-89
2023/11/12 00:13:13;;;;;;;;;;;;;;;7.63;100.00;98764.59;6216523;23;20248;-91
2023/11/12 00:15:39;;;;;;;;;;;;;;;7.62;100.00;98764.69;6188873;23;19922;-88
2023/11/12 00:18:10;;;;;;;;;;;;;;;7.62;100.00;98754.97;6214920;23;19916;-95
2023/11/12 00:20:35;;;;;;;;;;;;;;;7.68;100.00;98756.47;6215783;23;19919;-91
2023/11/12 00:23:36;;;;;;;;;;;;;;;7.64;100.00;98754.91;6189551;23;19912;-93
2023/11/12 00:26:04;;;;;;;;;;;;;;;7.68;100.00;98750.38;6127351;23;19955;-93
2023/11/12 00:28:29;;;;;;;;;;;;;;;7.68;100.00;98751.22;6191060;23;20382;-94
2023/11/12 00:30:55;;;;;;;;;;;;;;;7.70;100.00;98741.44;6216435;23;19986;-91
2023/11/12 00:33:21;;;;;;;;;;;;;;;7.70;100.00;98738.78;6192703;23;20339;-93
2023/11/12 00:36:09;;;;;;;;;;;;;;;7.71;100.00;98739.66;6190063;23;19998;-95
2023/11/12 00:42:04;;;;;;;;;;;;;;;7.73;100.00;98743.94;6064636;23;20282;-94
2023/11/12 00:44:40;;;;;;;;;;;;;;;7.73;100.00;98746.56;6124310;23;19949;-94
2023/11/12 00:47:43;;;;;;;;;;;;;;;7.72;100.00;98736.97;6102772;23;19937;-96
2023/11/12 00:53:11;;;;;;;;;;;;;;;7.76;100.00;98738.50;6252684;22;19926;-94
2023/11/12 00:55:36;;;;;;;;;;;;;;;7.79;100.00;98733.09;6252132;22;19916;-90
2023/11/12 00:58:02;;;;;;;;;;;;;;;7.80;100.00;98728.66;6248534;22;19943;-83
2023/11/12 01:00:27;;;;;;;;;;;;;;;7.80;100.00;98724.25;6275601;22;20236;-86
2023/11/12 01:05:48;;;;;;;;;;;;;;;7.84;100.00;98714.41;6246696;23;19920;-96
2023/11/12 01:11:20;;;;;;;;;;;;;;;7.91;100.00;98717.59;6249112;23;20294;-91
2023/11/12 01:24:50;;;;;;;;;;;;;;;7.98;100.00;98695.28;6244320;22;19998;-86
2023/11/12 01:27:16;;;;;;;;;;;;;;;8.03;100.00;98689.78;6221403;23;19919;-83
2023/11/12 08:48:19;;;;;;;;;;;;;;;8.73;100.00;98698.53;6229357;23;19974;-93
2023/11/12 08:50:54;;;;;;;;;;;;;;;8.78;100.00;98703.56;6248112;22;19933;-93
2023/11/12 08:53:22;;;;;;;;;;;;;;;8.82;100.00;98705.97;6248794;22;19919;-93
2023/11/12 08:55:51;;;;;;;;;;;;;;;8.83;100.00;98705.03;6248878;22;19911;-93
2023/11/12 08:58:25;;;;;;;;;;;;;;;8.85;100.00;98703.16;6248356;22;20349;-93
2023/11/12 09:01:04;;;;;;;;;;;;;;;8.87;100.00;98701.31;6248258;22;19956;-91
2023/11/12 09:04:04;;;;;;;;;;;;;;;8.88;100.00;98705.63;6247149;22;19962;-92
2023/11/12 09:06:32;;;;;;;;;;;;;;;8.93;100.00;98699.25;6248990;22;19998;-88
2023/11/12 09:12:04;;;;;;;;;;;;;;;8.96;100.00;98705.22;6278415;22;19907;-92
2023/11/12 09:14:36;;;;;;;;;;;;;;;8.98;100.00;98706.00;6244625;22;19988;-94
2023/11/12 09:17:02;;;;;;;;;;;;;;;9.02;100.00;98704.06;6248151;22;19922;-93
2023/11/12 09:19:30;;;;;;;;;;;;;;;8.27;100.00;98711.44;6248777;22;19915;-91
2023/11/12 09:21:55;;;;;;;;;;;;;;;7.21;100.00;98717.38;6249164;22;19915;-89
2023/11/12 09:24:21;;;;;;;;;;;;;;;7.01;100.00;98715.66;6248503;22;20252;-91
2023/11/12 09:26:56;;;;;;;;;;;;;;;;;;;;;
2023/11/12 09:29:39;;;;;;;;;;;;;;;6.78;100.00;98721.94;6278293;22;20362;-93
2023/11/12 09:32:08;;;;;;;;;;;;;;;6.60;100.00;98729.72;6250386;22;20110;-93
2023/11/12 09:45:54;;;;;;;;;;;;;;;5.83;100.00;98753.94;6263604;22;20562;-94
2023/11/12 13:47:36;;;;;;;;;;;;;;;6.49;100.00;98653.91;6265064;22;20341;-84
2023/11/12 13:50:02;;;;;;;;;;;;;;;6.39;100.00;98657.00;6249647;22;19958;-84
2023/11/12 13:52:27;;;;;;;;;;;;;;;6.33;100.00;98664.25;6277250;22;19922;-84
2023/11/12 13:55:03;;;;;;;;;;;;;;;6.23;100.00;98667.31;6276758;22;20013;-89
2023/11/12 13:57:29;;;;;;;;;;;;;;;6.19;100.00;98674.50;6182656;23;19923;-83
2023/11/12 13:59:55;;;;;;;;;;;;;;;6.22;100.00;98673.50;6183141;23;19987;-83
2023/11/12 14:02:20;;;;;;;;;;;;;;;6.11;100.00;98681.84;6181699;23;19917;-83
2023/11/12 14:04:46;;;;;;;;;;;;;;;6.15;100.00;98686.06;6157519;23;19959;-87
2023/11/12 14:07:11;;;;;;;;;;;;;;;6.15;100.00;98686.06;6182473;23;19962;-85
2023/11/12 14:09:36;;;;;;;;;;;;;;;6.09;100.00;98688.94;6183541;23;19943;-88
2023/11/12 14:12:04;;;;;;;;;;;;;;;6.20;100.00;98694.59;6157435;23;20075;-83
2023/11/12 14:14:30;;;;;;;;;;;;;;;6.75;100.00;98693.13;6182394;23;19951;-84
2023/11/12 14:16:57;;;;;;;;;;;;;;;7.09;100.00;98710.91;6181741;23;19963;-82
2023/11/12 14:19:27;;;;;;;;;;;;;;;7.30;100.00;98714.31;6181961;23;19939;-82
2023/11/12 14:21:55;;;;;;;;;;;;;;;7.51;100.00;98708.97;6223508;22;19930;-83
2023/11/12 14:24:23;;;;;;;;;;;;;;;7.64;100.00;98712.72;6275518;22;19919;-82
2023/11/12 14:26:49;;;;;;;;;;;;;;;7.78;100.00;98712.91;6249747;22;19918;-83
2023/11/12 14:29:15;;;;;;;;;;;;;;;7.91;100.00;98714.97;6275630;22;19919;-83
2023/11/12 14:31:41;;;;;;;;;;;;;;;8.01;100.00;98708.31;6275397;22;19915;-82
2023/11/12 14:34:12;;;;;;;;;;;;;;;8.08;100.00;98707.06;6249316;22;19919;-83
2023/11/12 14:36:40;;;;;;;;;;;;;;;8.22;100.00;98716.94;6276682;22;19911;-86
2023/11/12 14:39:09;;;;;;;;;;;;;;;8.29;100.00;98717.47;6276350;22;19912;-86
2023/11/12 14:41:35;;;;;;;;;;;;;;;8.37;100.00;98718.78;6249716;22;19918;-84
2023/11/12 14:44:01;;;;;;;;;;;;;;;8.46;100.00;98716.66;6275469;22;19919;-84
2023/11/12 14:46:27;;;;;;;;;;;;;;;8.52;100.00;98722.47;6275043;22;19912;-84
2023/11/12 14:48:52;;;;;;;;;;;;;;;8.60;100.00;98723.84;6275627;22;20361;-83
2023/11/12 14:51:18;;;;;;;;;;;;;;;8.66;100.00;98718.25;6276625;22;19988;-83
2023/11/12 14:53:44;;;;;;;;;;;;;;;8.69;100.00;98731.31;6275394;22;20380;-83
2023/11/12 14:56:14;;;;;;;;;;;;;;;8.75;100.00;98728.34;6276713;22;19922;-84
2023/11/12 14:58:40;;;;;;;;;;;;;;;8.79;100.00;98729.91;6276284;22;19912;-85
2023/11/12 15:01:05;;;;;;;;;;;;;;;8.82;100.00;98728.88;6274952;22;19997;-84
2023/11/12 15:03:30;;;;;;;;;;;;;;;8.85;100.00;98737.50;6275725;22;19922;-83
2023/11/12 15:05:56;;;;;;;;;;;;;;;8.90;100.00;98731.97;6276019;22;19915;-84
2023/11/12 15:08:22;;;;;;;;;;;;;;;8.90;100.00;98735.47;6276277;22;19919;-87
2023/11/12 15:10:47;;;;;;;;;;;;;;;8.95;100.00;98739.66;6276024;22;19911;-84
2023/11/12 15:13:12;;;;;;;;;;;;;;;8.96;100.00;98744.84;6276449;22;20319;-80
2023/11/12 15:15:38;;;;;;;;;;;;;;;9.00;100.00;98738.50;6273921;22;19912;-84
2023/11/12 15:18:03;;;;;;;;;;;;;;;9.03;100.00;98737.44;6276257;22;19960;-86
2023/11/12 15:20:29;;;;;;;;;;;;;;;9.07;100.00;98752.22;6276356;22;19958;-84
2023/11/12 15:22:54;;;;;;;;;;;;;;;7.94;100.00;98746.47;6276405;22;20319;-86
2023/11/12 15:25:19;;;;;;;;;;;;;;;7.31;100.00;98747.66;6275267;22;20353;-84
2023/11/12 15:27:45;;;;;;;;;;;;;;;7.20;100.00;98740.25;6276226;22;19915;-83
2023/11/12 15:30:12;;;;;;;;;;;;;;;7.04;100.00;98740.09;6276085;22;19919;-83
2023/11/12 15:32:38;;;;;;;;;;;;;;;6.84;100.00;98748.84;6273952;22;20381;-84
2023/11/12 15:35:04;;;;;;;;;;;;;;;6.84;100.00;98748.84;6275476;22;19911;-83
2023/11/12 15:37:30;;;;;;;;;;;;;;;6.62;100.00;98754.22;6276150;22;19912;-84
2023/11/12 15:39:55;;;;;;;;;;;;;;;6.62;100.00;98756.88;6249225;22;19922;-85
2023/11/12 15:42:23;;;;;;;;;;;;;;;6.55;100.00;98750.13;6276141;22;19916;-85
2023/11/12 15:44:49;;;;;;;;;;;;;;;6.53;100.00;98759.88;6275573;22;19968;-85
2023/11/12 15:47:15;;;;;;;;;;;;;;;6.51;100.00;98756.44;6247646;22;20258;-84
2023/11/12 15:49:41;;;;;;;;;;;;;;;6.44;100.00;98755.00;6276369;22;20349;-83
2023/11/12 15:52:07;;;;;;;;;;;;;;;6.38;100.00;98761.38;6275817;22;20018;-83
2023/11/12 15:54:32;;;;;;;;;;;;;;;6.24;100.00;98769.84;6249002;22;19922;-82
2023/11/12 15:56:58;;;;;;;;;;;;;;;6.19;100.00;98771.81;6275284;22;19915;-82
2023/11/12 15:59:23;;;;;;;;;;;;;;;6.18;100.00;98770.09;6276202;22;19917;-84
2023/11/12 16:01:49;;;;;;;;;;;;;;;6.20;100.00;98772.69;6247930;22;19911;-84
2023/11/12 16:04:14;;;;;;;;;;;;;;;6.16;100.00;98785.94;6275046;22;19922;-83
2023/11/12 16:06:39;;;;;;;;;;;;;;;6.15;100.00;98791.28;6275598;22;19915;-82
2023/11/12 16:09:08;;;;;;;;;;;;;;;6.09;100.00;98791.50;6248936;22;19912;-85
2023/11/12 16:11:34;;;;;;;;;;;;;;;6.08;100.00;98798.56;6276090;22;19911;-84
2023/11/12 16:13:59;;;;;;;;;;;;;;;6.46;100.00;98806.66;6275106;22;20224;-84
2023/11/12 16:16:25;;;;;;;;;;;;;;;6.86;100.00;98812.00;6273951;22;19997;-84
2023/11/12 16:18:51;;;;;;;;;;;;;;;7.15;100.00;98813.38;6275365;22;19950;-85
2023/11/12 16:21:16;;;;;;;;;;;;;;;7.35;100.00;98816.88;6275880;22;19911;-83
2023/11/12 16:23:43;;;;;;;;;;;;;;;7.51;100.00;98819.69;6275545;22;19973;-85
2023/11/12 16:26:09;;;;;;;;;;;;;;;7.61;100.00;98828.88;6275283;22;19941;-84
2023/11/12 16:28:35;;;;;;;;;;;;;;;7.75;100.00;98825.59;6273385;22;20587;-83
2023/11/12 16:31:01;;;;;;;;;;;;;;;7.85;100.00;98823.38;6274201;22;19919;-83
2023/11/12 16:33:28;;;;;;;;;;;;;;;7.94;100.00;98825.59;6275781;22;19911;-82
2023/11/12 16:35:53;;;;;;;;;;;;;;;8.03;100.00;98809.34;6274642;22;19923;-84
2023/11/12 16:38:20;;;;;;;;;;;;;;;8.15;100.00;98799.97;6247004;22;19915;-84
2023/11/12 16:40:46;;;;;;;;;;;;;;;8.22;100.00;98809.31;6274962;22;19970;-84
2023/11/12 16:43:12;;;;;;;;;;;;;;;8.30;100.00;98801.03;6275232;22;19924;-84
2023/11/12 16:45:38;;;;;;;;;;;;;;;8.39;100.00;98799.69;6246713;22;20319;-84
2023/11/12 16:48:04;;;;;;;;;;;;;;;8.46;100.00;98788.78;6274896;22;20018;-84
2023/11/12 16:50:30;;;;;;;;;;;;;;;8.53;100.00;98797.25;6275848;22;19939;-83
2023/11/12 16:52:55;;;;;;;;;;;;;;;8.60;100.00;98805.72;6248064;22;20235;-82
2023/11/12 16:55:20;;;;;;;;;;;;;;;8.65;100.00;98811.63;6275246;22;19919;-86
2023/11/12 16:57:47;;;;;;;;;;;;;;;8.67;100.00;98802.69;6274610;22;19911;-89
2023/11/12 17:00:13;;;;;;;;;;;;;;;8.72;100.00;98798.03;6247888;22;19915;-83
2023/11/12 17:02:38;;;;;;;;;;;;;;;8.78;100.00;98804.78;6273392;22;20013;-94
2023/11/12 17:05:04;;;;;;;;;;;;;;;8.82;100.00;98814.28;6247252;22;19915;-82
2023/11/12 17:07:30;;;;;;;;;;;;;;;8.86;100.00;98820.25;6247662;22;19994;-83
2023/11/12 17:09:55;;;;;;;;;;;;;;;8.89;100.00;98836.78;6247546;22;19915;-82
2023/11/12 17:12:22;;;;;;;;;;;;;;;8.93;100.00;98839.28;6273997;22;19919;-85
2023/11/12 17:14:48;;;;;;;;;;;;;;;8.97;100.00;98839.06;6247556;22;20234;-82
2023/11/12 17:17:14;;;;;;;;;;;;;;;9.00;100.00;98840.66;6244227;22;19982;-83
2023/11/12 17:19:40;;;;;;;;;;;;;;;9.03;100.00;98844.03;6274167;22;19911;-86
2023/11/12 17:22:06;;;;;;;;;;;;;;;9.05;100.00;98849.22;6246619;22;19997;-82
2023/11/12 17:24:31;;;;;;;;;;;;;;;8.83;100.00;98842.38;6274485;22;19915;-84
2023/11/12 17:26:57;;;;;;;;;;;;;;;7.56;100.00;98841.41;6273065;22;20405;-85
2023/11/12 17:29:24;;;;;;;;;;;;;;;7.16;100.00;98835.28;6247653;22;20323;-86
2023/11/12 17:31:50;;;;;;;;;;;;;;;7.06;100.00;98832.22;6272958;22;19972;-82
2023/11/12 17:34:15;;;;;;;;;;;;;;;7.01;100.00;98842.94;6274144;22;19911;-82
2023/11/12 17:36:40;;;;;;;;;;;;;;;6.87;100.00;98843.53;6247511;22;20345;-83
2023/11/12 17:39:07;;;;;;;;;;;;;;;6.74;100.00;98826.56;6246791;22;19915;-87
2023/11/12 17:41:33;;;;;;;;;;;;;;;6.59;100.00;98841.22;6247035;22;19915;-87
2023/11/12 17:43:58;;;;;;;;;;;;;;;6.48;100.00;98857.44;6247344;22;20234;-83
2023/11/12 17:46:23;;;;;;;;;;;;;;;6.58;100.00;98867.59;6272550;22;19911;-84
2023/11/12 17:48:50;;;;;;;;;;;;;;;6.51;100.00;98874.88;6248652;22;19923;-81
2023/11/12 17:51:18;;;;;;;;;;;;;;;6.44;100.00;98894.47;6249135;22;19921;-84
2023/11/12 17:53:49;;;;;;;;;;;;;;;6.35;100.00;98901.81;6275821;22;19911;-91
2023/11/12 17:56:14;;;;;;;;;;;;;;;6.34;100.00;98897.47;6276020;22;19911;-85
2023/11/12 17:58:40;;;;;;;;;;;;;;;6.29;100.00;98899.44;6248602;22;20231;-84
2023/11/12 18:01:05;;;;;;;;;;;;;;;6.27;100.00;98897.78;6273868;22;19957;-85
2023/11/12 18:03:33;;;;;;;;;;;;;;;6.19;100.00;98898.09;6275676;22;19923;-86
2023/11/12 18:05:58;;;;;;;;;;;;;;;6.08;100.00;98895.88;6248659;22;19990;-85
2023/11/12 18:08:24;;;;;;;;;;;;;;;6.08;100.00;98879.22;6275706;22;19950;-83
2023/11/12 18:10:49;;;;;;;;;;;;;;;6.12;100.00;98878.19;6276036;22;19919;-84
2023/11/12 18:13:15;;;;;;;;;;;;;;;6.08;100.00;98905.50;6249343;22;19911;-83
2023/11/12 18:15:45;;;;;;;;;;;;;;;6.06;100.00;98912.63;6274016;22;19918;-86
2023/11/12 18:18:11;;;;;;;;;;;;;;;6.02;100.00;98932.06;6275070;22;19912;-82
2023/11/12 18:20:36;;;;;;;;;;;;;;;6.31;100.00;98931.78;6276243;22;19922;-83
2023/11/12 18:23:03;;;;;;;;;;;;;;;6.83;100.00;98946.41;6275384;22;19912;-86
2023/11/12 18:25:28;;;;;;;;;;;;;;;7.09;100.00;98955.88;6248922;22;20335;-84
2023/11/12 18:27:53;;;;;;;;;;;;;;;7.28;100.00;98945.44;6275523;22;19918;-82
2023/11/12 18:30:19;;;;;;;;;;;;;;;7.45;100.00;98942.06;6275324;22;19922;-86
2023/11/12 18:32:44;;;;;;;;;;;;;;;7.57;100.00;98944.16;6247776;22;19986;-81
2023/11/12 18:35:09;;;;;;;;;;;;;;;7.69;100.00;98947.19;6276029;22;19911;-86
2023/11/12 18:37:35;;;;;;;;;;;;;;;7.81;100.00;98959.81;6275814;22;19911;-84
2023/11/12 18:40:01;;;;;;;;;;;;;;;7.90;100.00;98969.13;6274834;22;19915;-87
2023/11/12 18:42:29;;;;;;;;;;;;;;;7.99;100.00;98961.66;6275457;22;19981;-85
2023/11/12 18:44:54;;;;;;;;;;;;;;;8.06;100.00;98962.22;6275306;22;19911;-84
2023/11/12 18:47:19;;;;;;;;;;;;;;;8.16;100.00;98960.84;6273426;22;19926;-86
2023/11/12 18:49:47;;;;;;;;;;;;;;;8.25;100.00;98959.59;6275162;22;19986;-85
2023/11/12 18:52:13;;;;;;;;;;;;;;;8.32;100.00;98954.88;6275598;22;19915;-84
2023/11/12 18:54:39;;;;;;;;;;;;;;;8.37;100.00;98955.50;6275414;22;19950;-84
2023/11/12 18:57:04;;;;;;;;;;;;;;;8.45;100.00;98953.38;6275457;22;19911;-85
2023/11/12 18:59:29;;;;;;;;;;;;;;;8.53;100.00;98956.50;6274854;22;19922;-87
2023/11/12 19:01:55;;;;;;;;;;;;;;;8.60;100.00;98962.38;6272457;22;20213;-84
2023/11/12 19:04:20;;;;;;;;;;;;;;;8.67;100.00;98941.81;6275346;22;19926;-84
2023/11/12 19:06:48;;;;;;;;;;;;;;;8.71;100.00;98931.03;6275575;22;19923;-85
2023/11/12 19:09:15;;;;;;;;;;;;;;;8.77;100.00;98935.13;6275496;22;19990;-88
2023/11/12 19:11:41;;;;;;;;;;;;;;;8.82;100.00;98927.00;6248449;22;20302;-86
2023/11/12 19:14:07;;;;;;;;;;;;;;;8.83;100.00;98911.06;6275401;22;19911;-83
2023/11/12 19:16:35;;;;;;;;;;;;;;;8.87;100.00;98899.44;6273703;22;20027;-83
2023/11/12 19:19:01;;;;;;;;;;;;;;;8.88;100.00;98898.47;6275259;22;20002;-83
2023/11/12 19:21:34;;;;;;;;;;;;;;;8.94;100.00;98904.41;6275361;22;19922;-83
2023/11/12 19:23:59;;;;;;;;;;;;;;;8.98;100.00;98903.31;6275425;22;20235;-85
2023/11/12 19:26:25;;;;;;;;;;;;;;;9.00;100.00;98901.44;6275274;22;19916;-83
2023/11/12 19:28:50;;;;;;;;;;;;;;;9.03;100.00;98893.34;6248280;22;19917;-83
2023/11/12 19:31:16;;;;;;;;;;;;;;;8.97;100.00;98902.47;6246615;22;20281;-83
2023/11/12 19:33:44;;;;;;;;;;;;;;;7.68;100.00;98909.41;6275420;22;19930;-82
2023/11/12 19:36:10;;;;;;;;;;;;;;;7.14;100.00;98918.81;6248257;22;19911;-83
2023/11/12 19:38:37;;;;;;;;;;;;;;;7.06;100.00;98927.88;6275011;22;19915;-83
2023/11/12 19:41:02;;;;;;;;;;;;;;;6.98;100.00;98924.72;6275053;22;20232;-84
2023/11/12 19:43:28;;;;;;;;;;;;;;;6.88;100.00;98918.13;6248086;22;19997;-85
2023/11/12 19:45:53;;;;;;;;;;;;;;;6.82;100.00;98923.66;6273767;22;19919;-84
2023/11/12 19:48:18;;;;;;;;;;;;;;;6.72;100.00;98931.91;6274874;22;19922;-84
2023/11/12 19:50:44;;;;;;;;;;;;;;;6.62;100.00;98949.03;6275286;22;19915;-85
2023/11/12 19:53:13;;;;;;;;;;;;;;;6.53;100.00;98958.13;6275046;22;20413;-84
2023/11/12 19:55:38;;;;;;;;;;;;;;;6.49;100.00;98960.94;6274848;22;19977;-84
2023/11/12 19:58:04;;;;;;;;;;;;;;;6.35;100.00;98966.72;6275518;22;19919;-83
2023/11/12 20:00:30;;;;;;;;;;;;;;;6.46;100.00;98940.00;6273375;22;19993;-83
2023/11/12 20:02:56;;;;;;;;;;;;;;;6.45;100.00;98940.94;6274966;22;20312;-85
2023/11/12 20:05:21;;;;;;;;;;;;;;;6.35;100.00;98930.78;6274876;22;20323;-84
2023/11/12 20:07:46;;;;;;;;;;;;;;;6.30;100.00;98918.69;6275247;22;19957;-85
2023/11/12 20:10:12;;;;;;;;;;;;;;;6.26;100.00;98915.34;6274980;22;19912;-84
2023/11/12 20:12:37;;;;;;;;;;;;;;;6.22;100.00;98932.13;6274742;22;20323;-85
2023/11/12 20:15:04;;;;;;;;;;;;;;;6.18;100.00;98933.19;6275225;22;19911;-84
2023/11/12 20:17:29;;;;;;;;;;;;;;;6.08;100.00;98944.97;6273107;22;19938;-84
2023/11/12 20:19:54;;;;;;;;;;;;;;;6.06;100.00;98959.97;6247640;22;19915;-85
2023/11/12 20:22:20;;;;;;;;;;;;;;;6.04;100.00;98961.78;6274727;22;19919;-87
2023/11/12 20:24:49;;;;;;;;;;;;;;;6.05;100.00;98959.09;6274527;22;19954;-84
2023/11/12 20:27:15;;;;;;;;;;;;;;;6.11;100.00;98958.00;6274750;22;19919;-84
2023/11/12 20:29:41;;;;;;;;;;;;;;;6.60;100.00;98974.53;6274965;22;20316;-83
2023/11/12 20:32:07;;;;;;;;;;;;;;;6.97;100.00;98986.22;6273189;22;19977;-83
2023/11/12 20:34:33;;;;;;;;;;;;;;;7.20;100.00;98993.19;6274634;22;19990;-84
2023/11/12 20:36:58;;;;;;;;;;;;;;;7.38;100.00;99006.50;6274630;22;19937;-86
2023/11/12 20:39:24;;;;;;;;;;;;;;;7.50;100.00;99010.38;6274148;22;19911;-85
2023/11/12 20:41:50;;;;;;;;;;;;;;;7.63;100.00;99016.88;6248072;22;19946;-84
2023/11/12 20:44:16;;;;;;;;;;;;;;;7.75;100.00;99005.78;6274819;22;19911;-83
2023/11/12 20:46:44;;;;;;;;;;;;;;;7.82;100.00;98996.69;6273207;22;19998;-83
2023/11/12 20:49:09;;;;;;;;;;;;;;;7.93;100.00;98992.69;6274887;22;19919;-84
2023/11/12 20:51:34;;;;;;;;;;;;;;;8.00;100.00;98981.81;6275299;22;19942;-83
2023/11/12 20:54:00;;;;;;;;;;;;;;;8.07;100.00;98969.19;6275026;22;20247;-83
2023/11/12 20:56:26;;;;;;;;;;;;;;;8.17;100.00;98980.22;6274890;22;19937;-82
2023/11/12 20:58:51;;;;;;;;;;;;;;;8.23;100.00;98984.31;6274646;22;19955;-83
2023/11/12 21:01:16;;;;;;;;;;;;;;;8.30;100.00;98991.91;6273106;22;20328;-83
2023/11/12 21:03:42;;;;;;;;;;;;;;;8.36;100.00;98980.22;6274549;22;19915;-84
2023/11/12 21:06:08;;;;;;;;;;;;;;;8.43;100.00;98980.78;6274793;22;19911;-83
2023/11/12 21:08:34;;;;;;;;;;;;;;;8.51;100.00;98994.50;6274395;22;19918;-82
2023/11/12 21:11:00;;;;;;;;;;;;;;;8.58;100.00;99005.63;6274493;22;19915;-84
2023/11/12 21:13:25;;;;;;;;;;;;;;;8.63;100.00;98998.34;6274519;22;19973;-84
2023/11/12 21:15:52;;;;;;;;;;;;;;;8.68;100.00;99002.47;6273096;22;19949;-84
2023/11/12 21:18:17;;;;;;;;;;;;;;;8.74;100.00;99009.25;6247339;22;19912;-86
2023/11/12 21:20:44;;;;;;;;;;;;;;;8.77;100.00;98998.53;6247476;22;19915;-88
2023/11/12 21:23:11;;;;;;;;;;;;;;;8.81;100.00;98997.47;6275401;22;20323;-84
2023/11/12 21:25:39;;;;;;;;;;;;;;;8.85;100.00;98987.59;6249443;22;19915;-85
2023/11/12 21:28:05;;;;;;;;;;;;;;;8.89;100.00;98975.97;6276364;22;19990;-84
2023/11/12 21:30:30;;;;;;;;;;;;;;;8.91;100.00;98958.25;6275254;22;19958;-86
2023/11/12 21:33:01;;;;;;;;;;;;;;;8.95;100.00;98961.59;6249565;22;19915;-93
2023/11/12 21:35:26;;;;;;;;;;;;;;;8.98;100.00;98961.44;6276416;22;19934;-86
2023/11/12 21:37:52;;;;;;;;;;;;;;;9.01;100.00;98956.00;6249119;22;19915;-84
2023/11/12 21:40:18;;;;;;;;;;;;;;;9.05;100.00;98961.06;6248999;22;19911;-84
2023/11/12 21:42:44;;;;;;;;;;;;;;;8.50;100.00;98951.41;6276358;22;19919;-85
2023/11/12 21:45:10;;;;;;;;;;;;;;;7.57;100.00;98945.94;6276355;22;19957;-84
2023/11/12 21:47:35;;;;;;;;;;;;;;;7.16;100.00;98944.16;6247703;22;19919;-83
2023/11/12 21:50:00;;;;;;;;;;;;;;;7.02;100.00;98923.69;6276308;22;19915;-86
2023/11/12 21:52:26;;;;;;;;;;;;;;;6.90;100.00;98925.03;6276117;22;20327;-86
2023/11/12 21:54:51;;;;;;;;;;;;;;;6.82;100.00;98927.13;6249290;22;20029;-88
2023/11/12 21:57:17;;;;;;;;;;;;;;;6.69;100.00;98947.84;6275785;22;19918;-84
2023/11/12 21:59:44;;;;;;;;;;;;;;;6.67;100.00;98944.44;6276425;22;19915;-91
2023/11/12 22:02:09;;;;;;;;;;;;;;;6.62;100.00;98941.13;6248689;22;19939;-85
2023/11/12 22:04:35;;;;;;;;;;;;;;;6.46;100.00;98947.91;6276038;22;19911;-86
2023/11/12 22:07:01;;;;;;;;;;;;;;;6.43;100.00;98942.75;6276250;22;20254;-85
2023/11/12 22:09:26;;;;;;;;;;;;;;;6.41;100.00;98944.59;6248863;22;19915;-84
2023/11/12 22:11:52;;;;;;;;;;;;;;;6.38;100.00;98949.97;6276123;22;19911;-86
2023/11/12 22:14:17;;;;;;;;;;;;;;;6.27;100.00;98942.50;6276331;22;19911;-88
2023/11/12 22:16:43;;;;;;;;;;;;;;;6.27;100.00;98942.50;6248118;22;19935;-85
2023/11/12 22:19:09;;;;;;;;;;;;;;;6.22;100.00;98955.81;6276886;22;19965;-85
2023/11/12 22:21:34;;;;;;;;;;;;;;;6.09;100.00;98954.59;6275952;22;19965;-83
2023/11/12 22:24:00;;;;;;;;;;;;;;;6.14;100.00;98957.88;6276261;22;19945;-82
2023/11/12 22:26:25;;;;;;;;;;;;;;;6.06;100.00;98952.06;6276011;22;20422;-83
2023/11/12 22:28:51;;;;;;;;;;;;;;;6.02;100.00;98963.63;6275887;22;19918;-82
2023/11/12 22:31:16;;;;;;;;;;;;;;;5.95;100.00;98969.09;6247882;22;19915;-82
2023/11/12 22:33:43;;;;;;;;;;;;;;;6.38;100.00;98968.41;6275787;22;19912;-83
2023/11/12 22:36:08;;;;;;;;;;;;;;;6.86;100.00;98977.88;6275870;22;19911;-84
2023/11/12 22:38:33;;;;;;;;;;;;;;;7.11;100.00;98976.91;6248761;22;19986;-90
2023/11/12 22:40:59;;;;;;;;;;;;;;;7.28;100.00;98979.69;6275694;22;19961;-84
2023/11/12 22:43:24;;;;;;;;;;;;;;;7.44;100.00;98999.19;6275957;22;19911;-84
2023/11/12 22:45:50;;;;;;;;;;;;;;;7.56;100.00;99008.38;6247143;22;19922;-84
2023/11/12 22:48:15;;;;;;;;;;;;;;;7.68;100.00;99008.75;6275625;22;20323;-83
2023/11/12 22:50:40;;;;;;;;;;;;;;;7.78;100.00;99005.63;6275443;22;19942;-85
2023/11/12 22:53:07;;;;;;;;;;;;;;;7.86;100.00;98991.28;6248520;22;19918;-84
2023/11/12 22:55:32;;;;;;;;;;;;;;;7.94;100.00;98994.41;6275744;22;19919;-84
2023/11/12 22:57:57;;;;;;;;;;;;;;;8.00;100.00;99000.28;6275291;22;20335;-84
2023/11/12 23:00:23;;;;;;;;;;;;;;;8.09;100.00;99003.41;6247841;22;19965;-84
2023/11/12 23:02:48;;;;;;;;;;;;;;;8.17;100.00;98988.13;6275125;22;19922;-83
2023/11/12 23:05:14;;;;;;;;;;;;;;;8.25;100.00;98987.75;6275517;22;19911;-83
2023/11/12 23:07:40;;;;;;;;;;;;;;;8.29;100.00;98984.03;6248192;22;20042;-83
2023/11/12 23:10:06;;;;;;;;;;;;;;;8.37;100.00;98984.53;6275596;22;19918;-83
2023/11/12 23:12:33;;;;;;;;;;;;;;;8.41;100.00;98970.28;6275315;22;19926;-86
2023/11/12 23:14:58;;;;;;;;;;;;;;;8.50;100.00;98971.66;6248238;22;19922;-83
2023/11/12 23:17:23;;;;;;;;;;;;;;;8.55;100.00;98969.66;6273934;22;19911;-82
2023/11/12 23:19:49;;;;;;;;;;;;;;;8.61;100.00;98979.06;6275492;22;19996;-83
2023/11/12 23:22:14;;;;;;;;;;;;;;;8.65;100.00;98964.81;6248290;22;19957;-83
2023/11/12 23:24:39;;;;;;;;;;;;;;;8.69;100.00;98963.72;6275349;22;20492;-85
2023/11/12 23:27:04;;;;;;;;;;;;;;;8.72;100.00;98953.84;6275356;22;19911;-84
2023/11/12 23:29:34;;;;;;;;;;;;;;;8.78;100.00;98958.00;6248402;22;19923;-83
2023/11/12 23:32:02;;;;;;;;;;;;;;;8.82;100.00;98946.34;6274000;22;20461;-85
2023/11/12 23:34:28;;;;;;;;;;;;;;;8.85;100.00;98956.75;6275452;22;20327;-86
2023/11/12 23:36:53;;;;;;;;;;;;;;;8.89;100.00;98955.69;6248070;22;19915;-86
2023/11/12 23:39:18;;;;;;;;;;;;;;;8.91;100.00;98945.03;6275176;22;19916;-84
2023/11/12 23:41:43;;;;;;;;;;;;;;;8.96;100.00;98936.88;6275151;22;20008;-83
2023/11/12 23:44:09;;;;;;;;;;;;;;;9.00;100.00;98925.22;6248390;22;19911;-84
2023/11/12 23:46:34;;;;;;;;;;;;;;;9.03;100.00;98927.69;6273122;22;19924;-83
2023/11/12 23:49:00;;;;;;;;;;;;;;;9.04;100.00;98921.50;6275089;22;19946;-84
2023/11/12 23:51:27;;;;;;;;;;;;;;;8.05;100.00;98910.38;6275088;22;19912;-84
2023/11/12 23:53:52;;;;;;;;;;;;;;;7.46;100.00;98910.34;6275003;22;20247;-82
2023/11/12 23:56:18;;;;;;;;;;;;;;;7.19;100.00;98906.28;6275007;22;19918;-83
2023/11/12 23:58:43;;;;;;;;;;;;;;;6.96;100.00;98902.03;6247651;22;19912;-84
